Clean Ocean — V7CY7 — position and weather

sailwx.info

Track history (hours):
 
Tides and Currents Weather Stations Pressure Air Temp Water Temp Dewpoint Dewpoint Depression Visibility Wind Speed Wind Dir Waves Ship Positions

Clean Ocean

Last reported at 2018-May-24 09:00 UTC. Time now 2018-May-24 23:30 UTC.
Position N 31°27' E 125°18'.

Length 289 m; draft 9.3 m.

Type: Tanker. MMSI: 538005350.

Date/timePositionNaut miles runAvg speedWind from/ knotsBaromVisibWave heightAir tempDewpointWater temp
2018-May-24 09:00N 31°27' E 125°18'713.6
2018-May-24 08:30N 31°34' E 125°20'1013.6
2018-May-24 07:44N 31°44' E 125°21'513.8
2018-May-24 07:22N 31°49' E 125°21'713.8
2018-May-24 06:52N 31°56' E 125°22'613.7
2018-May-24 06:24N 32°02' E 125°23'1513.7
2018-May-24 05:18N 32°17' E 125°23'413.7
2018-May-24 05:00N 32°21' E 125°23'713.9
2018-May-24 04:30N 32°28' E 125°21'813.5
2018-May-24 03:54N 32°36' E 125°18'614.0
2018-May-24 03:27N 32°42' E 125°16'813.7
2018-May-24 02:53N 32°49' E 125°13'  
Track history (hours):
 
Tides and Currents Weather Stations Pressure Air Temp Water Temp Dewpoint Dewpoint Depression Visibility Wind Speed Wind Dir Waves Ship Positions

Clean Ocean

Last reported at 2018-May-24 09:00 UTC. Time now 2018-May-24 23:30 UTC.
Position N 31°27' E 125°18'.

Length 289 m; draft 9.3 m.

Type: Tanker. MMSI: 538005350.

Date/timePositionNaut miles runAvg speedWind from/ knotsBaromVisibWave heightAir tempDewpointWater temp
2018-May-24 09:00N 31°27' E 125°18'713.6
2018-May-24 08:30N 31°34' E 125°20'1013.6
2018-May-24 07:44N 31°44' E 125°21'513.8
2018-May-24 07:22N 31°49' E 125°21'713.8
2018-May-24 06:52N 31°56' E 125°22'613.7
2018-May-24 06:24N 32°02' E 125°23'1513.7
2018-May-24 05:18N 32°17' E 125°23'413.7
2018-May-24 05:00N 32°21' E 125°23'713.9
2018-May-24 04:30N 32°28' E 125°21'813.5
2018-May-24 03:54N 32°36' E 125°18'614.0
2018-May-24 03:27N 32°42' E 125°16'813.7
2018-May-24 02:53N 32°49' E 125°13'  

Dump ship's entire track history